sensor_id;sensor_type;location;lat;lon;timestamp;temperature;humidity
74359;DHT22;62792;46.236;6.040;2023-04-23T00:04:00;22.20;50.80
74359;DHT22;62792;46.236;6.040;2023-04-23T00:09:03;22.10;51.10
74359;DHT22;62792;46.236;6.040;2023-04-23T00:14:10;22.10;51.10
74359;DHT22;62792;46.236;6.040;2023-04-23T00:19:13;22.20;51.00
74359;DHT22;62792;46.236;6.040;2023-04-23T00:24:16;22.20;50.80
74359;DHT22;62792;46.236;6.040;2023-04-23T00:29:20;22.20;51.20
74359;DHT22;62792;46.236;6.040;2023-04-23T00:34:23;22.10;51.30
74359;DHT22;62792;46.236;6.040;2023-04-23T00:39:26;22.20;50.90
74359;DHT22;62792;46.236;6.040;2023-04-23T00:44:30;22.10;50.90
74359;DHT22;62792;46.236;6.040;2023-04-23T00:49:33;22.10;51.20
74359;DHT22;62792;46.236;6.040;2023-04-23T00:54:36;22.10;51.20
74359;DHT22;62792;46.236;6.040;2023-04-23T00:59:40;22.10;51.20
74359;DHT22;62792;46.236;6.040;2023-04-23T01:04:43;22.20;51.20
74359;DHT22;62792;46.236;6.040;2023-04-23T01:09:47;22.10;51.40
74359;DHT22;62792;46.236;6.040;2023-04-23T01:14:52;22.10;51.30
74359;DHT22;62792;46.236;6.040;2023-04-23T01:19:56;22.10;51.30
74359;DHT22;62792;46.236;6.040;2023-04-23T01:25:01;22.10;51.30
74359;DHT22;62792;46.236;6.040;2023-04-23T01:30:05;22.10;51.30
74359;DHT22;62792;46.236;6.040;2023-04-23T01:35:09;22.00;51.60
74359;DHT22;62792;46.236;6.040;2023-04-23T01:40:15;22.10;51.40
74359;DHT22;62792;46.236;6.040;2023-04-23T01:45:18;22.00;51.30
74359;DHT22;62792;46.236;6.040;2023-04-23T01:50:21;22.00;51.50
74359;DHT22;62792;46.236;6.040;2023-04-23T01:55:28;22.10;51.40
74359;DHT22;62792;46.236;6.040;2023-04-23T02:00:30;22.10;51.40
74359;DHT22;62792;46.236;6.040;2023-04-23T02:05:34;22.10;51.20
74359;DHT22;62792;46.236;6.040;2023-04-23T02:10:38;22.00;51.30
74359;DHT22;62792;46.236;6.040;2023-04-23T02:15:41;22.10;51.20
74359;DHT22;62792;46.236;6.040;2023-04-23T02:20:44;22.10;51.30
74359;DHT22;62792;46.236;6.040;2023-04-23T02:25:48;22.10;51.10
74359;DHT22;62792;46.236;6.040;2023-04-23T02:30:52;22.10;51.40
74359;DHT22;62792;46.236;6.040;2023-04-23T02:35:55;22.10;51.20
74359;DHT22;62792;46.236;6.040;2023-04-23T02:41:00;22.10;51.00
74359;DHT22;62792;46.236;6.040;2023-04-23T02:46:02;22.00;51.10
74359;DHT22;62792;46.236;6.040;2023-04-23T02:51:09;22.10;51.00
74359;DHT22;62792;46.236;6.040;2023-04-23T02:56:17;22.10;51.20
74359;DHT22;62792;46.236;6.040;2023-04-23T03:01:20;22.00;51.30
74359;DHT22;62792;46.236;6.040;2023-04-23T03:06:23;22.10;51.10
74359;DHT22;62792;46.236;6.040;2023-04-23T03:11:27;22.00;51.30
74359;DHT22;62792;46.236;6.040;2023-04-23T03:16:30;22.00;51.30
74359;DHT22;62792;46.236;6.040;2023-04-23T03:21:33;22.10;51.30
74359;DHT22;62792;46.236;6.040;2023-04-23T03:26:37;22.10;51.40
74359;DHT22;62792;46.236;6.040;2023-04-23T03:31:40;22.00;51.30
74359;DHT22;62792;46.236;6.040;2023-04-23T03:36:43;22.00;51.50
74359;DHT22;62792;46.236;6.040;2023-04-23T03:41:50;22.00;51.40
74359;DHT22;62792;46.236;6.040;2023-04-23T03:46:53;22.00;51.30
74359;DHT22;62792;46.236;6.040;2023-04-23T03:51:56;22.00;51.40
74359;DHT22;62792;46.236;6.040;2023-04-23T03:57:00;22.00;51.40
74359;DHT22;62792;46.236;6.040;2023-04-23T04:02:04;21.90;51.40
74359;DHT22;62792;46.236;6.040;2023-04-23T04:07:07;22.00;51.50
74359;DHT22;62792;46.236;6.040;2023-04-23T04:12:13;22.00;51.50
74359;DHT22;62792;46.236;6.040;2023-04-23T04:17:17;22.00;51.50
74359;DHT22;62792;46.236;6.040;2023-04-23T04:22:20;22.00;51.30
74359;DHT22;62792;46.236;6.040;2023-04-23T04:27:24;22.00;51.50
74359;DHT22;62792;46.236;6.040;2023-04-23T04:32:27;22.00;51.60
74359;DHT22;62792;46.236;6.040;2023-04-23T04:37:30;22.00;51.80
74359;DHT22;62792;46.236;6.040;2023-04-23T04:42:35;22.00;51.50
74359;DHT22;62792;46.236;6.040;2023-04-23T04:47:37;22.00;51.60
74359;DHT22;62792;46.236;6.040;2023-04-23T04:52:42;22.00;51.50
74359;DHT22;62792;46.236;6.040;2023-04-23T04:57:46;22.00;51.40
74359;DHT22;62792;46.236;6.040;2023-04-23T05:02:49;22.00;51.50
74359;DHT22;62792;46.236;6.040;2023-04-23T05:07:52;22.00;51.20
74359;DHT22;62792;46.236;6.040;2023-04-23T05:12:57;22.00;51.20
74359;DHT22;62792;46.236;6.040;2023-04-23T05:18:02;22.00;51.40
74359;DHT22;62792;46.236;6.040;2023-04-23T05:23:05;22.00;51.20
74359;DHT22;62792;46.236;6.040;2023-04-23T05:28:10;22.00;51.30
74359;DHT22;62792;46.236;6.040;2023-04-23T05:33:12;22.00;51.30
74359;DHT22;62792;46.236;6.040;2023-04-23T05:38:16;22.10;51.10
74359;DHT22;62792;46.236;6.040;2023-04-23T05:43:20;22.00;51.00
74359;DHT22;62792;46.236;6.040;2023-04-23T05:48:23;22.00;51.10
74359;DHT22;62792;46.236;6.040;2023-04-23T05:53:26;22.10;50.90
74359;DHT22;62792;46.236;6.040;2023-04-23T05:58:31;22.10;51.30
74359;DHT22;62792;46.236;6.040;2023-04-23T06:03:33;22.10;51.10
74359;DHT22;62792;46.236;6.040;2023-04-23T06:08:37;22.10;50.90
74359;DHT22;62792;46.236;6.040;2023-04-23T06:13:41;22.10;51.20
74359;DHT22;62792;46.236;6.040;2023-04-23T06:18:44;22.10;51.10
74359;DHT22;62792;46.236;6.040;2023-04-23T06:23:47;22.20;50.90
74359;DHT22;62792;46.236;6.040;2023-04-23T06:28:51;22.10;50.70
74359;DHT22;62792;46.236;6.040;2023-04-23T06:33:54;22.20;51.00
74359;DHT22;62792;46.236;6.040;2023-04-23T06:38:57;22.20;51.00
74359;DHT22;62792;46.236;6.040;2023-04-23T06:44:01;22.10;50.90
74359;DHT22;62792;46.236;6.040;2023-04-23T06:49:04;22.20;51.00
74359;DHT22;62792;46.236;6.040;2023-04-23T06:54:07;22.20;51.10
74359;DHT22;62792;46.236;6.040;2023-04-23T06:59:11;22.20;50.90
74359;DHT22;62792;46.236;6.040;2023-04-23T07:04:14;22.20;50.90
74359;DHT22;62792;46.236;6.040;2023-04-23T07:09:17;22.20;50.70
74359;DHT22;62792;46.236;6.040;2023-04-23T07:14:21;22.30;50.80
74359;DHT22;62792;46.236;6.040;2023-04-23T07:19:24;22.10;50.90
74359;DHT22;62792;46.236;6.040;2023-04-23T07:24:27;22.20;51.00
74359;DHT22;62792;46.236;6.040;2023-04-23T07:29:32;22.20;50.90
74359;DHT22;62792;46.236;6.040;2023-04-23T07:34:34;22.20;50.80
74359;DHT22;62792;46.236;6.040;2023-04-23T07:39:38;22.10;50.90
74359;DHT22;62792;46.236;6.040;2023-04-23T07:44:46;22.20;51.00
74359;DHT22;62792;46.236;6.040;2023-04-23T07:49:48;22.20;51.00
74359;DHT22;62792;46.236;6.040;2023-04-23T07:54:51;22.20;50.90
74359;DHT22;62792;46.236;6.040;2023-04-23T07:59:55;22.30;51.10
74359;DHT22;62792;46.236;6.040;2023-04-23T08:04:58;22.20;51.10
74359;DHT22;62792;46.236;6.040;2023-04-23T08:10:01;22.20;51.00
74359;DHT22;62792;46.236;6.040;2023-04-23T08:15:08;22.30;51.20
74359;DHT22;62792;46.236;6.040;2023-04-23T08:20:12;22.20;51.30
74359;DHT22;62792;46.236;6.040;2023-04-23T08:25:15;22.20;50.80
74359;DHT22;62792;46.236;6.040;2023-04-23T08:30:19;22.30;51.00
74359;DHT22;62792;46.236;6.040;2023-04-23T08:35:22;22.20;51.00
74359;DHT22;62792;46.236;6.040;2023-04-23T08:40:25;22.30;51.00
74359;DHT22;62792;46.236;6.040;2023-04-23T08:45:33;22.30;51.10
74359;DHT22;62792;46.236;6.040;2023-04-23T08:50:42;22.30;51.00
74359;DHT22;62792;46.236;6.040;2023-04-23T08:55:48;22.40;51.10
74359;DHT22;62792;46.236;6.040;2023-04-23T09:00:55;22.40;51.10
74359;DHT22;62792;46.236;6.040;2023-04-23T09:05:59;22.40;51.10
74359;DHT22;62792;46.236;6.040;2023-04-23T09:11:02;22.40;51.10
74359;DHT22;62792;46.236;6.040;2023-04-23T09:16:07;22.40;51.20
74359;DHT22;62792;46.236;6.040;2023-04-23T09:21:11;22.40;51.20
74359;DHT22;62792;46.236;6.040;2023-04-23T09:26:17;22.40;51.20
74359;DHT22;62792;46.236;6.040;2023-04-23T09:31:22;22.50;51.10
74359;DHT22;62792;46.236;6.040;2023-04-23T09:36:25;22.60;51.00
74359;DHT22;62792;46.236;6.040;2023-04-23T09:41:28;22.50;51.20
74359;DHT22;62792;46.236;6.040;2023-04-23T09:46:34;22.60;51.00
74359;DHT22;62792;46.236;6.040;2023-04-23T09:51:37;22.50;51.00
74359;DHT22;62792;46.236;6.040;2023-04-23T09:56:42;22.50;50.90
74359;DHT22;62792;46.236;6.040;2023-04-23T10:01:47;22.60;50.80
74359;DHT22;62792;46.236;6.040;2023-04-23T10:06:52;22.80;50.80
74359;DHT22;62792;46.236;6.040;2023-04-23T10:11:58;22.70;50.80
74359;DHT22;62792;46.236;6.040;2023-04-23T10:17:04;22.70;50.60
74359;DHT22;62792;46.236;6.040;2023-04-23T10:22:08;22.80;50.70
74359;DHT22;62792;46.236;6.040;2023-04-23T10:27:20;22.70;50.60
74359;DHT22;62792;46.236;6.040;2023-04-23T10:32:41;22.70;50.70
74359;DHT22;62792;46.236;6.040;2023-04-23T10:37:46;22.70;50.60
74359;DHT22;62792;46.236;6.040;2023-04-23T10:42:49;22.70;50.50
74359;DHT22;62792;46.236;6.040;2023-04-23T10:47:54;22.60;50.50
74359;DHT22;62792;46.236;6.040;2023-04-23T10:52:57;22.80;50.30
74359;DHT22;62792;46.236;6.040;2023-04-23T10:58:01;22.80;50.30
74359;DHT22;62792;46.236;6.040;2023-04-23T11:03:06;22.90;50.00
74359;DHT22;62792;46.236;6.040;2023-04-23T11:08:28;22.80;50.00
74359;DHT22;62792;46.236;6.040;2023-04-23T11:13:33;22.70;50.00
74359;DHT22;62792;46.236;6.040;2023-04-23T11:24:05;22.80;49.30
74359;DHT22;62792;46.236;6.040;2023-04-23T11:29:08;22.90;49.50
74359;DHT22;62792;46.236;6.040;2023-04-23T11:34:15;23.00;49.20
74359;DHT22;62792;46.236;6.040;2023-04-23T11:39:19;22.90;49.10
74359;DHT22;62792;46.236;6.040;2023-04-23T11:44:24;23.00;49.10
74359;DHT22;62792;46.236;6.040;2023-04-23T11:49:28;22.90;48.90
74359;DHT22;62792;46.236;6.040;2023-04-23T11:54:31;22.90;49.00
74359;DHT22;62792;46.236;6.040;2023-04-23T11:59:34;22.90;49.00
74359;DHT22;62792;46.236;6.040;2023-04-23T12:04:39;23.00;48.90
74359;DHT22;62792;46.236;6.040;2023-04-23T12:09:42;23.00;49.00
74359;DHT22;62792;46.236;6.040;2023-04-23T12:14:48;23.00;49.00
74359;DHT22;62792;46.236;6.040;2023-04-23T12:19:52;22.90;48.90
74359;DHT22;62792;46.236;6.040;2023-04-23T12:24:56;22.90;49.00
74359;DHT22;62792;46.236;6.040;2023-04-23T12:30:00;22.90;48.80
74359;DHT22;62792;46.236;6.040;2023-04-23T12:35:09;22.80;49.00
74359;DHT22;62792;46.236;6.040;2023-04-23T12:40:12;22.90;48.60
74359;DHT22;62792;46.236;6.040;2023-04-23T12:45:15;22.80;48.70
74359;DHT22;62792;46.236;6.040;2023-04-23T12:50:20;22.90;49.00
74359;DHT22;62792;46.236;6.040;2023-04-23T12:55:23;22.80;48.80
74359;DHT22;62792;46.236;6.040;2023-04-23T13:00:26;22.70;48.50
74359;DHT22;62792;46.236;6.040;2023-04-23T13:05:31;22.80;48.60
74359;DHT22;62792;46.236;6.040;2023-04-23T13:10:35;22.70;48.70
74359;DHT22;62792;46.236;6.040;2023-04-23T13:15:38;22.70;48.60
74359;DHT22;62792;46.236;6.040;2023-04-23T13:20:42;22.70;48.70
74359;DHT22;62792;46.236;6.040;2023-04-23T13:25:45;22.70;48.60
74359;DHT22;62792;46.236;6.040;2023-04-23T13:30:48;22.70;48.40
74359;DHT22;62792;46.236;6.040;2023-04-23T13:35:52;22.60;48.50
74359;DHT22;62792;46.236;6.040;2023-04-23T13:40:57;22.60;48.50
74359;DHT22;62792;46.236;6.040;2023-04-23T13:46:00;22.60;48.30
74359;DHT22;62792;46.236;6.040;2023-04-23T13:51:06;22.60;48.20
74359;DHT22;62792;46.236;6.040;2023-04-23T13:56:26;22.60;48.20
74359;DHT22;62792;46.236;6.040;2023-04-23T14:01:30;22.60;47.90
74359;DHT22;62792;46.236;6.040;2023-04-23T14:06:35;22.60;47.90
74359;DHT22;62792;46.236;6.040;2023-04-23T14:11:38;22.60;48.00
74359;DHT22;62792;46.236;6.040;2023-04-23T14:16:42;22.70;47.70
74359;DHT22;62792;46.236;6.040;2023-04-23T14:21:46;22.70;47.40
74359;DHT22;62792;46.236;6.040;2023-04-23T14:26:50;22.70;47.30
74359;DHT22;62792;46.236;6.040;2023-04-23T14:31:52;22.60;47.50
74359;DHT22;62792;46.236;6.040;2023-04-23T14:36:57;22.60;47.50
74359;DHT22;62792;46.236;6.040;2023-04-23T14:41:59;22.50;47.40
74359;DHT22;62792;46.236;6.040;2023-04-23T14:47:03;22.50;47.20
74359;DHT22;62792;46.236;6.040;2023-04-23T14:52:09;22.50;47.00
74359;DHT22;62792;46.236;6.040;2023-04-23T14:57:12;22.40;46.90
74359;DHT22;62792;46.236;6.040;2023-04-23T15:02:16;22.50;47.10
74359;DHT22;62792;46.236;6.040;2023-04-23T15:07:22;22.40;47.70
74359;DHT22;62792;46.236;6.040;2023-04-23T15:12:36;22.30;48.30
74359;DHT22;62792;46.236;6.040;2023-04-23T15:17:48;22.30;48.60
74359;DHT22;62792;46.236;6.040;2023-04-23T15:22:53;22.30;49.40
74359;DHT22;62792;46.236;6.040;2023-04-23T15:27:55;22.30;49.90
74359;DHT22;62792;46.236;6.040;2023-04-23T15:32:59;22.30;50.10
74359;DHT22;62792;46.236;6.040;2023-04-23T15:38:03;22.20;50.30
74359;DHT22;62792;46.236;6.040;2023-04-23T15:43:06;22.30;50.70
74359;DHT22;62792;46.236;6.040;2023-04-23T15:48:09;22.20;50.80
74359;DHT22;62792;46.236;6.040;2023-04-23T15:53:13;22.10;51.00
74359;DHT22;62792;46.236;6.040;2023-04-23T15:58:16;22.20;50.80
74359;DHT22;62792;46.236;6.040;2023-04-23T16:03:19;22.20;50.80
74359;DHT22;62792;46.236;6.040;2023-04-23T16:08:24;22.10;50.90
74359;DHT22;62792;46.236;6.040;2023-04-23T16:13:27;22.20;50.60
74359;DHT22;62792;46.236;6.040;2023-04-23T16:18:29;22.20;50.70
74359;DHT22;62792;46.236;6.040;2023-04-23T16:23:34;22.20;50.80
74359;DHT22;62792;46.236;6.040;2023-04-23T16:28:37;22.20;50.70
74359;DHT22;62792;46.236;6.040;2023-04-23T16:33:40;22.20;50.80
74359;DHT22;62792;46.236;6.040;2023-04-23T16:38:44;22.10;50.80
74359;DHT22;62792;46.236;6.040;2023-04-23T16:43:50;22.20;51.10
74359;DHT22;62792;46.236;6.040;2023-04-23T16:48:52;22.10;51.10
74359;DHT22;62792;46.236;6.040;2023-04-23T16:53:57;22.10;51.30
74359;DHT22;62792;46.236;6.040;2023-04-23T16:59:00;22.10;51.20
74359;DHT22;62792;46.236;6.040;2023-04-23T17:04:03;22.00;51.50
74359;DHT22;62792;46.236;6.040;2023-04-23T17:09:07;22.10;51.60
74359;DHT22;62792;46.236;6.040;2023-04-23T17:14:10;22.10;51.50
74359;DHT22;62792;46.236;6.040;2023-04-23T17:19:13;22.00;51.80
74359;DHT22;62792;46.236;6.040;2023-04-23T17:24:17;22.00;52.00
74359;DHT22;62792;46.236;6.040;2023-04-23T17:29:20;21.90;51.90
74359;DHT22;62792;46.236;6.040;2023-04-23T17:34:23;22.00;52.00
74359;DHT22;62792;46.236;6.040;2023-04-23T17:39:27;22.00;52.00
74359;DHT22;62792;46.236;6.040;2023-04-23T17:44:30;22.00;51.90
74359;DHT22;62792;46.236;6.040;2023-04-23T17:49:33;21.90;51.80
74359;DHT22;62792;46.236;6.040;2023-04-23T17:54:38;22.00;52.00
74359;DHT22;62792;46.236;6.040;2023-04-23T17:59:41;22.00;52.00
74359;DHT22;62792;46.236;6.040;2023-04-23T18:04:44;21.90;51.90
74359;DHT22;62792;46.236;6.040;2023-04-23T18:09:48;22.00;52.10
74359;DHT22;62792;46.236;6.040;2023-04-23T18:14:51;21.90;52.20
74359;DHT22;62792;46.236;6.040;2023-04-23T18:19:54;21.80;52.10
74359;DHT22;62792;46.236;6.040;2023-04-23T18:25:01;21.90;52.10
74359;DHT22;62792;46.236;6.040;2023-04-23T18:30:04;21.90;52.00
74359;DHT22;62792;46.236;6.040;2023-04-23T18:35:08;21.90;52.00
74359;DHT22;62792;46.236;6.040;2023-04-23T18:40:13;21.90;52.00
74359;DHT22;62792;46.236;6.040;2023-04-23T18:45:16;21.90;52.10
74359;DHT22;62792;46.236;6.040;2023-04-23T18:50:28;21.90;51.90
74359;DHT22;62792;46.236;6.040;2023-04-23T18:55:34;21.90;52.20
74359;DHT22;62792;46.236;6.040;2023-04-23T19:00:37;21.90;52.00
74359;DHT22;62792;46.236;6.040;2023-04-23T19:05:40;21.80;52.10
74359;DHT22;62792;46.236;6.040;2023-04-23T19:10:44;22.00;51.90
74359;DHT22;62792;46.236;6.040;2023-04-23T19:15:48;21.90;51.90
74359;DHT22;62792;46.236;6.040;2023-04-23T19:20:51;21.90;51.90
74359;DHT22;62792;46.236;6.040;2023-04-23T19:25:55;21.90;52.10
74359;DHT22;62792;46.236;6.040;2023-04-23T19:30:58;21.90;51.80
74359;DHT22;62792;46.236;6.040;2023-04-23T19:36:01;21.80;51.90
74359;DHT22;62792;46.236;6.040;2023-04-23T19:41:06;21.90;52.00
74359;DHT22;62792;46.236;6.040;2023-04-23T19:46:09;21.90;51.80
74359;DHT22;62792;46.236;6.040;2023-04-23T19:51:11;21.80;52.00
74359;DHT22;62792;46.236;6.040;2023-04-23T19:56:16;21.80;51.80
74359;DHT22;62792;46.236;6.040;2023-04-23T20:01:18;21.80;52.00
74359;DHT22;62792;46.236;6.040;2023-04-23T20:06:21;21.80;51.90
74359;DHT22;62792;46.236;6.040;2023-04-23T20:11:26;21.80;52.10
74359;DHT22;62792;46.236;6.040;2023-04-23T20:16:28;21.80;52.20
74359;DHT22;62792;46.236;6.040;2023-04-23T20:21:32;21.70;52.10
74359;DHT22;62792;46.236;6.040;2023-04-23T20:26:37;21.80;52.20
74359;DHT22;62792;46.236;6.040;2023-04-23T20:31:40;21.80;52.00
74359;DHT22;62792;46.236;6.040;2023-04-23T20:36:43;21.80;52.30
74359;DHT22;62792;46.236;6.040;2023-04-23T20:41:49;21.70;52.40
74359;DHT22;62792;46.236;6.040;2023-04-23T20:46:52;21.70;52.30
74359;DHT22;62792;46.236;6.040;2023-04-23T20:51:58;21.70;52.20
74359;DHT22;62792;46.236;6.040;2023-04-23T20:57:02;21.70;52.50
74359;DHT22;62792;46.236;6.040;2023-04-23T21:02:05;21.80;52.40
74359;DHT22;62792;46.236;6.040;2023-04-23T21:07:09;21.80;52.20
74359;DHT22;62792;46.236;6.040;2023-04-23T21:12:13;21.70;52.30
74359;DHT22;62792;46.236;6.040;2023-04-23T21:17:16;21.70;52.30
74359;DHT22;62792;46.236;6.040;2023-04-23T21:22:18;21.70;52.40
74359;DHT22;62792;46.236;6.040;2023-04-23T21:27:22;21.70;52.30
74359;DHT22;62792;46.236;6.040;2023-04-23T21:32:25;21.70;52.50
74359;DHT22;62792;46.236;6.040;2023-04-23T21:37:29;21.70;52.40
74359;DHT22;62792;46.236;6.040;2023-04-23T21:42:35;21.70;52.30
74359;DHT22;62792;46.236;6.040;2023-04-23T21:47:39;21.70;52.20
74359;DHT22;62792;46.236;6.040;2023-04-23T21:52:42;21.80;52.60
74359;DHT22;62792;46.236;6.040;2023-04-23T21:57:47;21.80;52.40
74359;DHT22;62792;46.236;6.040;2023-04-23T22:02:50;21.60;52.50
74359;DHT22;62792;46.236;6.040;2023-04-23T22:07:55;21.70;52.40
74359;DHT22;62792;46.236;6.040;2023-04-23T22:13:01;21.70;52.50
74359;DHT22;62792;46.236;6.040;2023-04-23T22:18:04;21.60;52.70
74359;DHT22;62792;46.236;6.040;2023-04-23T22:23:07;21.70;52.30
74359;DHT22;62792;46.236;6.040;2023-04-23T22:28:11;21.70;52.50
74359;DHT22;62792;46.236;6.040;2023-04-23T22:33:14;21.70;52.40
74359;DHT22;62792;46.236;6.040;2023-04-23T22:38:17;21.70;52.40
74359;DHT22;62792;46.236;6.040;2023-04-23T22:43:21;21.50;52.60
74359;DHT22;62792;46.236;6.040;2023-04-23T22:48:24;21.60;52.50
74359;DHT22;62792;46.236;6.040;2023-04-23T22:53:28;21.70;52.50
74359;DHT22;62792;46.236;6.040;2023-04-23T22:58:32;21.70;52.40
74359;DHT22;62792;46.236;6.040;2023-04-23T23:03:35;21.70;52.60
74359;DHT22;62792;46.236;6.040;2023-04-23T23:08:38;21.60;52.50
74359;DHT22;62792;46.236;6.040;2023-04-23T23:13:42;21.70;52.50
74359;DHT22;62792;46.236;6.040;2023-04-23T23:18:45;21.60;52.40
74359;DHT22;62792;46.236;6.040;2023-04-23T23:23:48;21.70;52.50
74359;DHT22;62792;46.236;6.040;2023-04-23T23:28:53;21.70;52.70
74359;DHT22;62792;46.236;6.040;2023-04-23T23:33:56;21.70;52.70
74359;DHT22;62792;46.236;6.040;2023-04-23T23:38:59;21.70;52.50
74359;DHT22;62792;46.236;6.040;2023-04-23T23:44:03;21.70;52.60
74359;DHT22;62792;46.236;6.040;2023-04-23T23:49:06;21.70;52.60
74359;DHT22;62792;46.236;6.040;2023-04-23T23:54:09;21.80;52.60
74359;DHT22;62792;46.236;6.040;2023-04-23T23:59:13;21.80;52.60
